Time;durP1;ratioP1;P1;durP2;ratioP2;P2;SDS_P1;SDS_P2;PMS_P1;PMS_P2;Temp;Humidity;BMP_temperature;BMP_pressure;BME280_temperature;BME280_humidity;BME280_pressure;Samples;Min_cycle;Max_cycle;Signal;HPM_P1;HPM_P2
2021/10/24 00:02:25;;;;;;;77.30;22.87;;;8.20;99.90;;;;;;5038474;28;20735;-80
2021/10/24 00:04:51;;;;;;;77.03;25.40;;;8.00;99.90;;;;;;5039937;28;20215;-80
2021/10/24 00:07:16;;;;;;;78.00;24.03;;;7.90;99.90;;;;;;5039946;28;20173;-80
2021/10/24 00:09:42;;;;;;;84.80;39.13;;;7.90;99.90;;;;;;5039197;28;20400;-79
2021/10/24 00:12:08;;;;;;;98.30;70.67;;;8.00;99.90;;;;;;5038302;28;20173;-80
2021/10/24 00:14:34;;;;;;;79.83;22.70;;;8.10;99.90;;;;;;5038745;28;20173;-80
2021/10/24 00:16:59;;;;;;;78.93;29.60;;;8.10;99.90;;;;;;5039056;28;20412;-80
2021/10/24 00:19:25;;;;;;;79.23;28.40;;;8.10;99.90;;;;;;5039999;28;20219;-79
2021/10/24 00:21:51;;;;;;;80.40;26.27;;;8.00;99.90;;;;;;5038362;28;20185;-80
2021/10/24 00:24:17;;;;;;;78.07;24.67;;;8.00;99.90;;;;;;5039634;28;20161;-79
2021/10/24 00:26:42;;;;;;;79.67;27.80;;;8.00;99.90;;;;;;5039615;28;20169;-79
2021/10/24 00:29:08;;;;;;;83.40;27.37;;;8.00;99.90;;;;;;5039369;28;20424;-80
2021/10/24 00:31:34;;;;;;;98.50;68.40;;;8.00;99.90;;;;;;5098676;23;20974;-80
2021/10/24 00:34:00;;;;;;;79.57;28.67;;;8.00;99.90;;;;;;5036561;28;20656;-80
2021/10/24 00:36:25;;;;;;;79.27;22.67;;;8.00;99.90;;;;;;5037404;28;20778;-80
2021/10/24 00:38:51;;;;;;;77.77;22.43;;;8.00;99.90;;;;;;5037114;28;20231;-80
2021/10/24 00:41:20;;;;;;;77.50;25.33;;;8.10;99.90;;;;;;5037667;28;20208;-81
2021/10/24 00:43:47;;;;;;;80.00;32.13;;;8.10;99.90;;;;;;5036149;28;20304;-80
2021/10/24 00:46:12;;;;;;;90.45;57.03;;;8.00;99.90;;;;;;5038215;28;20168;-80
2021/10/24 00:48:38;;;;;;;87.60;56.70;;;8.00;99.90;;;;;;5037354;28;20185;-80
2021/10/24 00:51:04;;;;;;;89.20;56.67;;;8.00;99.90;;;;;;5037216;28;20216;-80
2021/10/24 00:53:30;;;;;;;96.60;69.50;;;8.00;99.90;;;;;;5037638;28;20687;-80
2021/10/24 00:55:58;;;;;;;90.45;59.85;;;7.90;99.90;;;;;;5036686;28;20880;-80
2021/10/24 00:58:24;;;;;;;89.70;56.67;;;7.90;99.90;;;;;;5037590;28;20185;-80
2021/10/24 01:00:50;;;;;;;88.90;59.95;;;7.90;99.90;;;;;;5037285;28;20203;-80
2021/10/24 01:03:15;;;;;;;91.23;62.47;;;7.80;99.90;;;;;;5037272;28;20165;-80
2021/10/24 01:05:42;;;;;;;89.70;58.27;;;7.90;99.90;;;;;;5036922;28;20542;-80
2021/10/24 01:08:09;;;;;;;91.20;63.95;;;7.90;99.90;;;;;;5037185;28;20419;-80
2021/10/24 01:10:36;;;;;;;91.32;59.13;;;7.80;99.90;;;;;;5037616;28;20164;-80
2021/10/24 01:13:02;;;;;;;94.30;75.18;;;7.70;99.90;;;;;;5035981;28;20565;-80
2021/10/24 01:15:28;;;;;;;90.65;60.20;;;7.70;99.90;;;;;;5037032;28;20218;-80
2021/10/24 01:17:54;;;;;;;89.97;60.93;;;7.70;99.90;;;;;;5036873;28;20173;-80
2021/10/24 01:20:23;;;;;;;90.80;65.20;;;7.70;99.90;;;;;;5036664;28;20166;-80
2021/10/24 01:22:49;;;;;;;90.40;62.55;;;7.70;99.90;;;;;;5036655;28;20199;-80
2021/10/24 01:25:15;;;;;;;101.78;82.78;;;7.60;99.90;;;;;;5035925;28;20167;-80
2021/10/24 01:27:42;;;;;;;88.22;55.78;;;7.60;99.90;;;;;;5036538;28;20215;-80
2021/10/24 01:30:08;;;;;;;95.75;76.60;;;7.60;99.90;;;;;;5035300;28;20177;-80
2021/10/24 01:32:34;;;;;;;94.57;67.60;;;7.50;99.90;;;;;;5036717;28;20164;-80
2021/10/24 01:35:00;;;;;;;85.33;49.27;;;7.40;99.90;;;;;;5036474;28;20227;-80
2021/10/24 01:37:41;;;;;;;94.13;73.17;;;7.30;99.90;;;;;;5036886;28;20784;-80
2021/10/24 01:40:10;;;;;;;103.18;70.53;;;6.90;99.90;;;;;;5036477;28;20898;-80
2021/10/24 01:42:51;;;;;;;92.30;41.60;;;6.70;99.90;;;;;;5036370;28;20733;-80
2021/10/24 01:45:19;;;;;;;87.70;33.10;;;6.70;99.90;;;;;;5036780;28;20146;-80
2021/10/24 01:47:45;;;;;;;80.30;27.25;;;6.70;99.90;;;;;;5036969;28;20177;-80
2021/10/24 01:50:11;;;;;;;85.65;38.08;;;6.70;99.90;;;;;;5036814;28;20168;-80
2021/10/24 01:52:43;;;;;;;107.73;89.97;;;6.70;99.90;;;;;;5036748;28;20189;-80
2021/10/24 01:55:13;;;;;;;106.13;85.47;;;6.70;99.90;;;;;;5036399;28;20161;-80
2021/10/24 01:57:44;;;;;;;91.05;49.75;;;6.80;99.90;;;;;;5035564;28;20216;-80
2021/10/24 02:00:11;;;;;;;113.18;96.35;;;6.80;99.90;;;;;;5036441;28;20525;-80
2021/10/24 02:02:36;;;;;;;139.68;126.63;;;6.90;99.90;;;;;;5036312;28;20276;-80
2021/10/24 02:05:02;;;;;;;170.63;156.07;;;7.00;99.90;;;;;;5036830;28;20683;-80
2021/10/24 02:07:28;;;;;;;136.57;123.97;;;7.10;99.90;;;;;;5042962;28;20183;-80
2021/10/24 02:09:54;;;;;;;145.80;132.53;;;7.10;99.90;;;;;;5042818;28;20240;-80
2021/10/24 02:12:20;;;;;;;123.70;111.37;;;7.20;99.90;;;;;;5042981;28;20165;-80
2021/10/24 02:14:46;;;;;;;119.77;105.43;;;7.20;99.90;;;;;;5041513;28;20435;-80
2021/10/24 02:17:11;;;;;;;92.97;60.60;;;7.20;99.90;;;;;;5042489;28;20414;-79
2021/10/24 02:19:37;;;;;;;92.80;48.53;;;7.20;99.90;;;;;;5042873;28;20169;-80
2021/10/24 02:22:03;;;;;;;78.70;22.10;;;7.20;99.90;;;;;;5041511;28;20204;-80
2021/10/24 02:24:29;;;;;;;77.88;21.58;;;7.20;99.90;;;;;;5042740;28;20160;-80
2021/10/24 02:26:54;;;;;;;91.23;59.80;;;7.20;99.90;;;;;;5042898;28;20157;-80
2021/10/24 02:29:20;;;;;;;93.27;64.90;;;6.90;99.90;;;;;;5042104;28;20185;-80
2021/10/24 02:31:46;;;;;;;81.17;28.90;;;6.80;99.90;;;;;;5043189;28;20180;-80
2021/10/24 02:34:11;;;;;;;77.53;23.73;;;6.90;99.90;;;;;;5042873;28;20161;-80
2021/10/24 02:36:37;;;;;;;100.73;69.87;;;6.90;99.90;;;;;;5042675;28;20640;-80
2021/10/24 02:39:04;;;;;;;86.73;46.33;;;6.90;99.90;;;;;;5042782;28;20657;-80
2021/10/24 02:41:30;;;;;;;81.40;28.75;;;6.90;99.90;;;;;;5042307;28;20197;-81
2021/10/24 02:43:55;;;;;;;80.83;26.83;;;6.90;99.90;;;;;;5042710;28;20157;-80
2021/10/24 02:46:21;;;;;;;78.77;23.87;;;6.90;99.90;;;;;;5042681;28;20170;-80
2021/10/24 02:48:46;;;;;;;79.60;22.70;;;6.90;99.90;;;;;;5043122;28;20267;-80
2021/10/24 02:51:15;;;;;;;78.20;22.47;;;6.80;99.90;;;;;;5043579;28;20165;-80
2021/10/24 02:53:40;;;;;;;81.30;32.55;;;6.80;99.90;;;;;;5041815;28;20173;-80
2021/10/24 02:56:06;;;;;;;86.27;42.47;;;6.60;99.90;;;;;;5042290;28;20168;-80
2021/10/24 02:58:32;;;;;;;90.40;50.97;;;6.60;99.90;;;;;;5042471;28;20688;-80
2021/10/24 03:00:57;;;;;;;109.10;95.00;;;6.40;99.90;;;;;;5042618;28;20196;-80
2021/10/24 03:03:23;;;;;;;105.67;85.23;;;6.20;99.90;;;;;;5042533;28;20187;-80
2021/10/24 03:05:49;;;;;;;94.03;72.27;;;6.20;99.90;;;;;;5041469;28;20233;-80
2021/10/24 03:08:15;;;;;;;121.47;108.83;;;6.30;99.90;;;;;;5042391;28;20188;-80
2021/10/24 03:10:41;;;;;;;132.40;119.38;;;6.10;99.90;;;;;;5041448;28;20254;-80
2021/10/24 03:13:07;;;;;;;184.30;170.03;;;6.10;99.90;;;;;;5043080;28;20169;-80
2021/10/24 03:15:33;;;;;;;129.73;117.33;;;6.00;99.90;;;;;;5041425;28;20191;-80
2021/10/24 03:17:59;;;;;;;137.00;124.53;;;6.10;99.90;;;;;;5037708;28;20587;-80
2021/10/24 03:20:24;;;;;;;144.43;131.63;;;6.00;99.90;;;;;;5039132;28;20169;-80
2021/10/24 03:22:50;;;;;;;135.97;123.43;;;5.90;99.90;;;;;;5038696;28;20556;-80
2021/10/24 03:25:16;;;;;;;139.03;126.57;;;6.00;99.90;;;;;;5038719;28;20173;-80
2021/10/24 03:27:42;;;;;;;118.73;106.80;;;6.00;99.90;;;;;;5039092;28;20177;-80
2021/10/24 03:30:08;;;;;;;137.13;124.93;;;6.00;99.90;;;;;;5039130;28;20188;-80
2021/10/24 03:32:34;;;;;;;125.90;113.38;;;5.90;99.90;;;;;;5039330;28;20699;-80
2021/10/24 03:35:00;;;;;;;141.63;129.23;;;6.00;99.90;;;;;;5039016;28;20170;-80
2021/10/24 03:37:26;;;;;;;121.97;110.03;;;6.00;99.90;;;;;;5039103;28;20180;-80
2021/10/24 03:39:52;;;;;;;129.83;117.30;;;6.00;99.90;;;;;;5039040;28;20204;-80
2021/10/24 03:42:18;;;;;;;129.73;116.93;;;6.00;99.90;;;;;;5039048;28;20181;-80
2021/10/24 03:44:44;;;;;;;121.70;109.90;;;5.90;99.90;;;;;;5038719;28;20199;-80
2021/10/24 03:47:09;;;;;;;135.15;122.57;;;5.90;99.90;;;;;;5038988;28;20189;-80
2021/10/24 03:49:36;;;;;;;135.17;122.53;;;5.90;99.90;;;;;;5038480;28;20220;-80
2021/10/24 03:52:01;;;;;;;124.20;112.05;;;5.80;99.90;;;;;;5038799;28;20191;-80
2021/10/24 03:54:27;;;;;;;117.17;105.33;;;5.70;99.90;;;;;;5038490;28;20252;-80
2021/10/24 03:56:53;;;;;;;133.43;120.53;;;5.60;99.90;;;;;;5038807;28;20165;-80
2021/10/24 03:59:19;;;;;;;114.13;102.70;;;5.70;99.90;;;;;;5038903;28;20660;-80
2021/10/24 04:01:44;;;;;;;118.97;107.17;;;5.70;99.90;;;;;;5037565;28;20451;-80
2021/10/24 04:04:10;;;;;;;112.03;100.37;;;5.70;99.90;;;;;;5036999;28;20687;-80
2021/10/24 04:06:35;;;;;;;118.20;106.43;;;5.80;99.90;;;;;;5038670;28;20652;-80
2021/10/24 04:09:01;;;;;;;105.63;94.00;;;6.00;99.90;;;;;;5037135;28;20259;-80
2021/10/24 04:11:27;;;;;;;110.53;98.67;;;5.90;99.90;;;;;;5038600;28;20204;-81
2021/10/24 04:13:52;;;;;;;101.90;88.77;;;5.90;99.90;;;;;;5038041;28;20169;-80
2021/10/24 04:16:18;;;;;;;117.70;105.93;;;6.00;99.90;;;;;;5037958;28;20219;-80
2021/10/24 04:18:43;;;;;;;107.17;95.73;;;5.80;99.90;;;;;;5037328;28;20196;-80
2021/10/24 04:21:09;;;;;;;104.73;93.30;;;5.80;99.90;;;;;;5038164;28;20196;-80
2021/10/24 04:23:35;;;;;;;125.13;113.33;;;5.80;99.90;;;;;;5038154;28;20173;-80
2021/10/24 04:26:00;;;;;;;118.20;106.47;;;5.80;99.90;;;;;;5038259;28;20176;-80
2021/10/24 04:28:26;;;;;;;110.87;99.50;;;5.70;99.90;;;;;;5037832;28;20185;-80
2021/10/24 04:30:52;;;;;;;111.67;99.70;;;5.60;99.90;;;;;;5037593;28;20751;-80
2021/10/24 04:33:18;;;;;;;112.70;100.00;;;5.60;99.90;;;;;;5036125;28;20213;-80
2021/10/24 04:35:43;;;;;;;111.80;99.60;;;5.40;99.90;;;;;;5037471;28;20173;-80
2021/10/24 04:38:09;;;;;;;124.10;112.10;;;5.30;99.90;;;;;;5037646;28;20477;-80
2021/10/24 04:40:35;;;;;;;120.50;108.63;;;5.40;99.90;;;;;;5036715;28;20177;-80
2021/10/24 04:43:00;;;;;;;105.80;94.40;;;5.40;99.90;;;;;;5038109;28;20211;-80
2021/10/24 04:45:26;;;;;;;126.17;114.10;;;5.50;99.90;;;;;;5038411;28;20175;-80
2021/10/24 04:47:52;;;;;;;108.73;97.27;;;5.30;99.90;;;;;;5037881;28;20268;-80
2021/10/24 04:50:17;;;;;;;112.10;100.77;;;5.40;99.90;;;;;;5038298;28;20177;-80
2021/10/24 04:52:43;;;;;;;124.03;111.73;;;5.30;99.90;;;;;;5037994;28;20173;-80
2021/10/24 04:55:09;;;;;;;142.50;129.37;;;5.20;99.90;;;;;;5036708;28;20184;-80
2021/10/24 04:57:35;;;;;;;135.63;122.13;;;5.30;99.90;;;;;;5037463;28;20189;-80
2021/10/24 05:00:00;;;;;;;131.37;118.93;;;5.30;99.90;;;;;;5038013;28;20177;-80
2021/10/24 05:02:26;;;;;;;126.57;114.43;;;5.20;99.90;;;;;;5037465;28;20275;-80
2021/10/24 05:04:52;;;;;;;132.57;119.93;;;5.30;99.90;;;;;;5036319;28;20176;-80
2021/10/24 05:07:18;;;;;;;130.17;117.67;;;5.20;99.90;;;;;;5037859;28;20200;-80
2021/10/24 05:09:43;;;;;;;133.77;120.90;;;5.20;99.90;;;;;;5036308;28;20169;-80
2021/10/24 05:12:09;;;;;;;134.37;121.83;;;5.20;99.90;;;;;;5037029;28;20170;-80
2021/10/24 05:14:35;;;;;;;128.63;116.43;;;5.20;99.90;;;;;;5037379;28;20549;-80
2021/10/24 05:17:00;;;;;;;137.23;124.80;;;5.10;99.90;;;;;;5037555;28;20184;-80
2021/10/24 05:19:26;;;;;;;117.57;105.40;;;5.30;99.90;;;;;;5036640;28;20428;-80
2021/10/24 05:21:52;;;;;;;126.37;114.27;;;5.30;99.90;;;;;;5036034;28;20279;-80
2021/10/24 05:24:18;;;;;;;107.13;87.83;;;5.30;99.90;;;;;;5036016;28;20180;-80
2021/10/24 05:26:44;;;;;;;121.30;109.07;;;5.30;99.90;;;;;;5035412;28;20177;-80
2021/10/24 05:29:10;;;;;;;109.90;97.97;;;5.30;99.90;;;;;;5036816;28;20420;-80
2021/10/24 05:31:36;;;;;;;111.38;99.53;;;5.50;99.90;;;;;;5036529;28;20183;-80
2021/10/24 05:34:01;;;;;;;119.83;107.93;;;5.60;99.90;;;;;;5036564;28;20247;-80
2021/10/24 05:36:27;;;;;;;111.30;93.17;;;5.50;99.90;;;;;;5037064;28;20244;-80
2021/10/24 05:38:53;;;;;;;102.43;85.40;;;5.60;99.90;;;;;;5036546;28;20193;-80
2021/10/24 05:41:18;;;;;;;105.53;79.90;;;5.60;99.90;;;;;;5036080;28;20197;-80
2021/10/24 05:43:44;;;;;;;101.67;80.83;;;5.50;99.90;;;;;;5036594;28;20404;-80
2021/10/24 05:46:10;;;;;;;102.10;90.87;;;5.30;99.90;;;;;;5035096;28;20704;-80
2021/10/24 05:48:36;;;;;;;98.55;76.75;;;5.30;99.90;;;;;;5036401;28;20264;-80
2021/10/24 05:51:02;;;;;;;98.67;78.37;;;5.40;99.90;;;;;;5036616;28;20195;-80
2021/10/24 05:53:27;;;;;;;96.23;69.30;;;5.40;99.90;;;;;;5036554;28;20165;-80
2021/10/24 05:55:53;;;;;;;95.20;73.67;;;5.40;99.90;;;;;;5035439;28;20264;-80
2021/10/24 05:58:19;;;;;;;97.50;75.53;;;5.30;99.90;;;;;;5035315;28;20474;-80
2021/10/24 06:00:44;;;;;;;100.80;83.93;;;5.30;99.90;;;;;;5036313;28;20169;-80
2021/10/24 06:03:10;;;;;;;98.37;76.83;;;5.40;99.90;;;;;;5036809;28;20216;-80
2021/10/24 06:05:36;;;;;;;98.88;82.43;;;5.40;99.90;;;;;;5036892;28;20161;-80
2021/10/24 06:08:03;;;;;;;100.13;76.73;;;5.40;99.90;;;;;;5036956;28;20181;-80
2021/10/24 06:10:36;;;;;;;102.28;88.45;;;5.40;99.90;;;;;;5036132;28;20172;-80
2021/10/24 06:13:02;;;;;;;97.45;82.60;;;5.60;99.90;;;;;;5036258;28;20156;-80
2021/10/24 06:15:28;;;;;;;93.07;70.15;;;5.60;99.90;;;;;;5035135;28;20180;-80
2021/10/24 06:17:55;;;;;;;99.50;77.70;;;5.70;99.90;;;;;;5036068;28;20185;-80
2021/10/24 06:20:23;;;;;;;98.88;74.03;;;5.70;99.90;;;;;;5036247;28;20256;-80
2021/10/24 06:22:49;;;;;;;96.72;73.43;;;5.80;99.90;;;;;;5034934;28;20261;-80
2021/10/24 06:25:16;;;;;;;103.55;87.30;;;5.90;99.90;;;;;;5035760;28;20166;-80
2021/10/24 06:27:43;;;;;;;106.25;94.55;;;5.90;99.90;;;;;;5036258;28;20180;-80
2021/10/24 06:30:22;;;;;;;104.65;86.68;;;5.90;99.90;;;;;;5103651;22;20220;-80
2021/10/24 06:32:52;;;;;;;115.05;103.47;;;5.90;99.90;;;;;;5022105;28;20177;-80
2021/10/24 06:35:18;;;;;;;87.50;39.30;;;5.90;99.90;;;;;;5019992;28;20170;-79
2021/10/24 06:37:47;;;;;;;83.50;36.27;;;5.70;99.90;;;;;;5037605;28;20185;-79
2021/10/24 06:40:16;;;;;;;91.30;58.60;;;5.70;99.90;;;;;;5037887;28;20173;-79
2021/10/24 06:42:46;;;;;;;98.57;72.97;;;5.60;99.90;;;;;;5037880;28;20560;-79
2021/10/24 06:45:12;;;;;;;102.57;90.03;;;5.60;99.90;;;;;;5038122;28;20162;-79
2021/10/24 06:47:41;;;;;;;105.13;92.53;;;5.60;99.90;;;;;;5038101;28;20196;-79
2021/10/24 06:50:08;;;;;;;99.43;86.18;;;5.60;99.90;;;;;;5037610;28;20176;-79
2021/10/24 06:52:34;;;;;;;100.47;85.03;;;5.70;99.90;;;;;;5040915;28;20192;-80
2021/10/24 06:55:00;;;;;;;100.47;86.20;;;5.80;99.90;;;;;;5043608;28;20169;-80
2021/10/24 06:57:26;;;;;;;107.67;96.20;;;5.80;99.90;;;;;;5043521;28;20173;-80
2021/10/24 06:59:52;;;;;;;113.70;102.20;;;5.70;99.90;;;;;;5025531;28;20411;-80
2021/10/24 07:02:20;;;;;;;112.17;100.50;;;5.80;99.90;;;;;;5024812;28;20188;-79
2021/10/24 07:04:46;;;;;;;117.22;105.22;;;5.70;99.90;;;;;;5024793;28;20185;-80
2021/10/24 07:07:12;;;;;;;115.20;103.37;;;5.70;99.90;;;;;;5042016;28;20529;-79
2021/10/24 07:09:41;;;;;;;108.10;96.67;;;5.70;99.90;;;;;;5023731;28;20993;-80
2021/10/24 07:12:09;;;;;;;108.75;97.25;;;5.70;99.90;;;;;;5022070;28;20264;-79
2021/10/24 07:14:34;;;;;;;113.32;101.32;;;5.70;99.90;;;;;;5022078;28;20168;-79
2021/10/24 07:17:00;;;;;;;104.63;93.43;;;5.70;99.90;;;;;;5039944;28;20229;-80
2021/10/24 07:19:35;;;;;;;111.07;98.00;;;5.80;99.90;;;;;;5041700;28;20189;-80
2021/10/24 07:22:01;;;;;;;99.25;79.70;;;5.80;99.90;;;;;;5024450;28;20189;-80
2021/10/24 07:24:26;;;;;;;103.27;82.50;;;5.80;99.90;;;;;;5041379;28;20166;-80
2021/10/24 07:26:52;;;;;;;108.03;96.13;;;5.70;99.90;;;;;;5042146;28;20161;-80
2021/10/24 07:29:18;;;;;;;100.40;83.20;;;5.70;99.90;;;;;;5041942;28;20196;-80
2021/10/24 07:31:44;;;;;;;108.27;96.87;;;5.70;99.90;;;;;;5023883;28;20199;-80
2021/10/24 07:34:09;;;;;;;109.63;97.53;;;5.70;99.90;;;;;;5024214;28;20610;-80
2021/10/24 07:36:35;;;;;;;97.60;74.17;;;5.80;99.90;;;;;;5043529;28;20415;-80
2021/10/24 07:39:00;;;;;;;111.97;99.93;;;5.70;99.90;;;;;;5044588;28;20189;-80
2021/10/24 07:41:26;;;;;;;117.13;105.13;;;5.80;99.90;;;;;;5044112;28;20203;-80
2021/10/24 07:43:52;;;;;;;119.20;106.77;;;5.80;99.90;;;;;;5044028;28;20183;-80
2021/10/24 07:46:18;;;;;;;124.13;112.03;;;5.80;99.90;;;;;;5043913;28;20158;-80
2021/10/24 07:48:43;;;;;;;130.23;118.00;;;5.70;99.90;;;;;;5042512;28;20503;-80
2021/10/24 07:51:09;;;;;;;150.07;136.80;;;5.70;99.90;;;;;;5041256;28;20189;-80
2021/10/24 07:53:34;;;;;;;155.23;141.70;;;5.70;99.90;;;;;;5041214;28;20176;-80
2021/10/24 07:56:02;;;;;;;131.77;119.40;;;5.80;99.90;;;;;;5040932;28;20165;-80
2021/10/24 07:58:29;;;;;;;178.27;164.15;;;5.80;99.90;;;;;;5039782;28;20272;-80
2021/10/24 08:00:55;;;;;;;145.82;132.68;;;5.80;99.90;;;;;;5022934;28;20227;-80
2021/10/24 08:03:21;;;;;;;155.20;141.18;;;5.80;99.90;;;;;;5039567;28;20157;-80
2021/10/24 08:05:47;;;;;;;160.47;146.77;;;6.00;99.90;;;;;;5022204;28;20172;-80
2021/10/24 08:08:13;;;;;;;171.00;156.73;;;6.00;99.90;;;;;;5039873;28;20444;-79
2021/10/24 08:10:38;;;;;;;164.53;150.70;;;6.00;99.90;;;;;;5039896;28;20403;-80
2021/10/24 08:13:07;;;;;;;166.13;151.93;;;6.00;99.90;;;;;;5039413;28;20193;-80
2021/10/24 08:15:33;;;;;;;170.38;156.57;;;6.00;99.90;;;;;;5020095;28;20172;-80
2021/10/24 08:17:59;;;;;;;158.97;145.13;;;6.00;99.90;;;;;;5019148;28;20272;-80
2021/10/24 08:20:24;;;;;;;150.17;136.33;;;6.20;99.90;;;;;;5037500;28;20404;-80
2021/10/24 08:22:50;;;;;;;179.40;165.47;;;6.20;99.90;;;;;;5037800;28;20494;-80
2021/10/24 08:25:16;;;;;;;184.03;169.27;;;6.30;99.90;;;;;;5038454;28;20196;-80
2021/10/24 08:27:43;;;;;;;257.90;240.95;;;6.30;99.90;;;;;;5020694;28;20439;-80
2021/10/24 08:30:10;;;;;;;211.23;196.35;;;6.30;99.90;;;;;;5037920;28;20176;-80
2021/10/24 08:32:37;;;;;;;228.05;212.00;;;6.30;99.90;;;;;;5019936;28;20161;-80
2021/10/24 08:35:07;;;;;;;200.75;186.20;;;6.40;99.90;;;;;;5037839;28;20157;-80
2021/10/24 08:37:33;;;;;;;225.32;209.50;;;6.40;99.90;;;;;;5018837;28;20208;-80
2021/10/24 08:39:59;;;;;;;183.80;169.60;;;6.50;99.90;;;;;;5036887;28;20161;-80
2021/10/24 08:42:28;;;;;;;160.67;147.30;;;6.60;99.90;;;;;;5037434;28;20335;-80
2021/10/24 08:44:58;;;;;;;149.18;136.02;;;6.70;99.90;;;;;;5037180;28;20157;-80
2021/10/24 08:47:25;;;;;;;141.75;129.15;;;6.70;99.90;;;;;;5036563;28;20172;-80
2021/10/24 08:49:51;;;;;;;148.75;135.90;;;6.90;99.90;;;;;;5036871;28;20239;-80
2021/10/24 08:52:23;;;;;;;217.95;201.88;;;6.90;99.90;;;;;;5036966;28;20167;-80
2021/10/24 08:54:50;;;;;;;184.57;169.45;;;6.90;99.90;;;;;;5018797;28;20161;-80
2021/10/24 08:57:26;;;;;;;171.05;157.23;;;7.00;99.90;;;;;;5036986;28;20157;-80
2021/10/24 08:59:57;;;;;;;197.82;183.15;;;7.10;99.90;;;;;;5037080;28;20157;-80
2021/10/24 09:02:25;;;;;;;162.18;148.93;;;7.10;99.90;;;;;;5037055;28;20239;-80
2021/10/24 09:04:53;;;;;;;141.23;128.60;;;7.10;99.90;;;;;;5036722;28;20498;-80
2021/10/24 09:07:19;;;;;;;149.70;136.73;;;7.20;99.90;;;;;;5036076;28;20177;-80
2021/10/24 09:09:46;;;;;;;107.85;96.15;;;7.30;99.90;;;;;;5019169;28;20162;-80
2021/10/24 09:12:13;;;;;;;93.40;68.55;;;7.40;99.90;;;;;;5037081;28;20256;-80
2021/10/24 09:14:48;;;;;;;107.88;95.30;;;7.50;99.90;;;;;;5036255;28;20170;-80
2021/10/24 09:17:40;;;;;;;100.70;84.25;;;7.50;99.90;;;;;;5018287;28;20176;-80
2021/10/24 09:20:06;;;;;;;97.50;83.82;;;7.60;99.90;;;;;;5033807;28;20235;-80
2021/10/24 09:22:38;;;;;;;96.47;82.15;;;7.70;99.90;;;;;;5036279;28;20204;-80
2021/10/24 09:25:16;;;;;;;95.35;71.13;;;7.80;99.90;;;;;;5035924;28;20172;-80
2021/10/24 09:27:55;;;;;;;94.43;59.65;;;8.00;99.90;;;;;;5036651;28;20668;-80
2021/10/24 09:30:34;;;;;;;100.43;80.05;;;8.00;99.90;;;;;;5017575;28;20786;-80
2021/10/24 09:33:02;;;;;;;98.15;69.05;;;8.10;99.90;;;;;;5036637;28;20608;-80
2021/10/24 09:35:34;;;;;;;96.15;79.60;;;8.30;99.90;;;;;;5035812;28;20196;-80
2021/10/24 09:38:05;;;;;;;98.35;79.40;;;8.30;99.90;;;;;;5035731;28;20675;-80
2021/10/24 09:40:40;;;;;;;104.63;93.65;;;8.40;99.90;;;;;;5017985;28;20192;-80
2021/10/24 09:43:14;;;;;;;141.88;129.40;;;8.50;99.90;;;;;;5018105;28;20643;-80
2021/10/24 09:46:10;;;;;;;187.88;173.82;;;8.70;99.90;;;;;;5018368;28;20171;-81
2021/10/24 09:48:37;;;;;;;125.13;112.65;;;8.90;99.90;;;;;;5027954;28;20711;-80
2021/10/24 09:51:11;;;;;;;85.40;38.75;;;9.00;99.90;;;;;;5036009;28;20164;-80
2021/10/24 09:53:41;;;;;;;84.32;27.10;;;9.10;99.90;;;;;;5036153;28;20240;-80
2021/10/24 09:56:18;;;;;;;78.82;21.90;;;9.20;99.90;;;;;;5018674;28;20529;-80
2021/10/24 09:58:49;;;;;;;75.88;25.27;;;9.30;99.90;;;;;;5036743;28;20549;-80
2021/10/24 10:01:17;;;;;;;78.07;30.52;;;9.40;99.90;;;;;;5036231;28;20197;-80
2021/10/24 10:03:45;;;;;;;99.82;56.90;;;9.50;99.90;;;;;;5037125;28;20247;-80
2021/10/24 10:06:11;;;;;;;93.43;75.88;;;9.60;99.90;;;;;;5024936;28;20204;-84
2021/10/24 10:08:43;;;;;;;96.45;81.88;;;9.70;99.90;;;;;;5045276;28;20200;-84
2021/10/24 10:11:21;;;;;;;92.35;77.72;;;9.70;99.90;;;;;;5044800;28;20165;-85
2021/10/24 10:13:52;;;;;;;90.57;70.70;;;9.90;99.90;;;;;;5045677;28;20613;-84
2021/10/24 10:16:18;;;;;;;83.28;46.05;;;10.00;99.90;;;;;;5042721;28;20556;-84
2021/10/24 10:18:56;;;;;;;74.75;23.08;;;10.10;99.90;;;;;;5045622;28;20181;-84
2021/10/24 10:21:31;;;;;;;73.10;18.42;;;10.30;99.90;;;;;;5046653;28;20196;-84
2021/10/24 10:24:01;;;;;;;83.05;40.67;;;10.40;99.90;;;;;;5028650;28;20165;-83
2021/10/24 10:26:34;;;;;;;76.85;29.98;;;10.50;99.90;;;;;;5046770;28;20165;-84
2021/10/24 10:29:00;;;;;;;79.53;32.13;;;10.40;99.90;;;;;;5051424;28;20200;-84
2021/10/24 10:31:29;;;;;;;78.38;33.28;;;10.50;99.90;;;;;;5033852;28;20208;-83
2021/10/24 10:34:09;;;;;;;80.63;41.83;;;10.60;99.90;;;;;;5051608;28;20169;-84
2021/10/24 10:36:44;;;;;;;79.38;38.72;;;10.70;99.90;;;;;;5051202;28;20207;-83
2021/10/24 10:39:32;;;;;;;83.47;45.42;;;10.80;99.90;;;;;;5051555;28;20180;-83
2021/10/24 10:42:06;;;;;;;78.97;39.65;;;10.90;99.90;;;;;;5033070;28;20196;-84
2021/10/24 10:44:34;;;;;;;82.47;48.42;;;10.90;98.60;;;;;;5051030;28;20220;-84
2021/10/24 10:47:01;;;;;;;80.25;44.88;;;11.00;99.90;;;;;;5033390;28;20296;-84
2021/10/24 10:49:27;;;;;;;76.70;29.75;;;11.20;99.70;;;;;;5033193;28;20203;-84
2021/10/24 10:51:54;;;;;;;80.35;35.08;;;11.20;94.90;;;;;;5033979;28;20172;-83
2021/10/24 10:54:20;;;;;;;74.03;25.67;;;11.20;95.80;;;;;;5051731;28;20192;-83
2021/10/24 10:56:48;;;;;;;73.93;21.53;;;11.40;96.80;;;;;;5050893;28;20173;-84
2021/10/24 10:59:34;;;;;;;70.78;15.43;;;11.40;95.10;;;;;;5050731;28;20189;-84
2021/10/24 11:02:38;;;;;;;71.22;14.40;;;11.50;93.20;;;;;;5034015;28;20196;-84
2021/10/24 11:05:05;;;;;;;70.25;13.70;;;11.60;94.70;;;;;;4974442;28;20178;-84
2021/10/24 11:07:50;;;;;;;71.78;12.23;;;11.70;91.90;;;;;;4991244;28;20163;-84
2021/10/24 11:10:37;;;;;;;69.35;13.75;;;11.80;92.30;;;;;;5027908;28;20183;-84
2021/10/24 11:13:26;;;;;;;70.00;12.77;;;11.90;90.10;;;;;;5051525;28;20193;-84
2021/10/24 11:15:51;;;;;;;70.25;12.18;;;12.10;90.70;;;;;;5051379;28;20176;-83
2021/10/24 11:18:33;;;;;;;68.80;10.93;;;12.10;87.70;;;;;;5048434;28;20193;-81
2021/10/24 11:21:00;;;;;;;70.30;9.40;;;12.30;86.50;;;;;;5047564;28;20771;-83
2021/10/24 11:23:30;;;;;;;74.65;10.07;;;12.40;84.10;;;;;;5048569;28;20161;-83
2021/10/24 11:25:58;;;;;;;67.65;10.38;;;12.30;78.70;;;;;;5049256;28;20172;-83
2021/10/24 11:28:28;;;;;;;68.30;8.80;;;12.30;76.00;;;;;;5047946;28;20220;-83
2021/10/24 11:31:01;;;;;;;68.30;9.02;;;12.30;80.10;;;;;;5048739;28;20184;-83
2021/10/24 11:33:43;;;;;;;68.55;8.93;;;12.20;78.70;;;;;;5048265;28;20556;-83
2021/10/24 11:36:17;;;;;;;69.32;11.77;;;12.40;82.20;;;;;;5034380;28;20153;-83
2021/10/24 11:38:43;;;;;;;67.82;11.70;;;12.50;77.70;;;;;;5046573;28;20211;-84
2021/10/24 11:41:20;;;;;;;70.60;9.73;;;12.50;76.10;;;;;;5048313;28;20165;-83
2021/10/24 11:43:46;;;;;;;67.67;8.47;;;12.50;74.10;;;;;;5049941;28;20164;-83
2021/10/24 11:46:11;;;;;;;66.50;8.37;;;12.40;80.20;;;;;;5033670;28;20414;-83
2021/10/24 11:48:37;;;;;;;70.60;11.97;;;12.60;79.30;;;;;;5048502;28;20422;-83
2021/10/24 11:51:06;;;;;;;73.65;18.15;;;12.60;77.40;;;;;;5031031;28;20192;-84
2021/10/24 11:53:55;;;;;;;73.22;20.05;;;12.70;74.80;;;;;;5049882;28;20235;-83
2021/10/24 11:56:37;;;;;;;71.53;20.98;;;12.70;74.60;;;;;;5049467;28;20154;-83
2021/10/24 11:59:18;;;;;;;72.15;21.63;;;12.70;72.80;;;;;;5051151;28;20192;-83
2021/10/24 12:01:46;;;;;;;74.95;24.30;;;12.70;68.90;;;;;;5050288;28;20185;-83
2021/10/24 12:04:15;;;;;;;82.03;22.80;;;12.70;73.50;;;;;;5051246;28;20637;-81
2021/10/24 12:06:49;;;;;;;73.07;24.75;;;12.90;71.50;;;;;;5033850;28;20412;-83
2021/10/24 12:09:35;;;;;;;74.93;27.67;;;12.90;74.00;;;;;;5051274;28;20189;-83
2021/10/24 12:12:19;;;;;;;75.30;27.27;;;13.00;75.40;;;;;;5032153;28;20177;-83
2021/10/24 12:14:56;;;;;;;74.40;23.83;;;13.00;71.00;;;;;;5049859;28;20871;-84
2021/10/24 12:17:26;;;;;;;72.70;16.80;;;12.90;67.50;;;;;;5033036;28;20423;-83
2021/10/24 12:20:13;;;;;;;73.30;25.00;;;12.90;65.60;;;;;;5051182;28;20396;-83
2021/10/24 12:22:42;;;;;;;72.45;23.80;;;13.00;69.10;;;;;;5051097;28;20509;-83
2021/10/24 12:25:13;;;;;;;70.93;19.70;;;13.00;72.80;;;;;;5050248;28;20188;-83
2021/10/24 12:27:41;;;;;;;75.10;26.47;;;13.00;78.80;;;;;;5047939;28;20416;-83
2021/10/24 12:33:05;;;;;;;71.70;20.20;;;13.10;71.40;;;;;;5017618;28;20507;-83
2021/10/24 12:35:50;;;;;;;70.72;15.60;;;13.10;71.10;;;;;;5019201;28;20434;-83
2021/10/24 12:38:20;;;;;;;71.22;16.85;;;13.10;68.50;;;;;;5019485;28;20235;-83